Time;durP1;ratioP1;P1;durP2;ratioP2;P2;SDS_P1;SDS_P2;PMS_P1;PMS_P2;Temp;Humidity;BMP_temperature;BMP_pressure;BME280_temperature;BME280_humidity;BME280_pressure;Samples;Min_cycle;Max_cycle;Signal;HPM_P1;HPM_P2
2023/05/05 00:01:10;;;;;;;;;;;;;;;8.37;58.36;101121.90;102617;278;91972;-56
2023/05/05 00:03:47;;;;;;;;;;;;;;;8.37;58.83;101127.12;102551;277;97121;-55
2023/05/05 00:06:22;;;;;;;;;;;;;;;8.35;58.98;101122.45;102546;278;120099;-55
2023/05/05 00:08:59;;;;;;;;;;;;;;;8.33;59.22;101126.14;102557;277;104963;-55
2023/05/05 00:11:38;;;;;;;;;;;;;;;8.30;59.22;101126.79;102538;278;114132;-54
2023/05/05 00:14:13;;;;;;;;;;;;;;;8.27;59.34;101126.48;102488;278;93878;-53
2023/05/05 00:16:46;;;;;;;;;;;;;;;8.24;59.28;101126.27;102562;278;97667;-55
2023/05/05 00:19:22;;;;;;;;;;;;;;;8.21;59.21;101125.30;102532;277;119981;-53
2023/05/05 00:21:58;;;;;;;;;;;;;;;8.22;58.85;101121.41;102548;278;104656;-55
2023/05/05 00:24:34;;;;;;;;;;;;;;;8.28;57.86;101119.20;102556;278;114585;-55
2023/05/05 00:27:13;;;;;;;;;;;;;;;8.30;57.67;101120.52;102531;278;92373;-54
2023/05/05 00:29:46;;;;;;;;;;;;;;;8.34;57.28;101118.44;102551;278;96890;-55
2023/05/05 00:32:25;;;;;;;;;;;;;;;8.35;57.26;101120.53;102534;278;121089;-55
2023/05/05 00:35:00;;;;;;;;;;;;;;;8.30;57.28;101123.48;102561;278;105628;-53
2023/05/05 00:37:34;;;;;;;;;;;;;;;8.34;56.83;101123.82;102521;278;114824;-54
2023/05/05 00:40:11;;;;;;;;;;;;;;;8.37;57.21;101118.87;102506;278;92774;-53
2023/05/05 00:42:46;;;;;;;;;;;;;;;8.35;57.50;101121.36;102549;278;98026;-54
2023/05/05 00:45:20;;;;;;;;;;;;;;;8.31;58.00;101118.02;102509;278;121124;-54
2023/05/05 00:47:59;;;;;;;;;;;;;;;8.26;58.44;101120.12;102527;278;104917;-52
2023/05/05 00:50:32;;;;;;;;;;;;;;;8.21;58.83;101122.95;102548;278;114894;-56
2023/05/05 00:53:06;;;;;;;;;;;;;;;8.14;59.20;101118.66;102524;278;93465;-56
2023/05/05 00:55:40;;;;;;;;;;;;;;;8.10;59.58;101120.95;102572;278;97155;-56
2023/05/05 00:58:13;;;;;;;;;;;;;;;8.04;59.99;101126.55;102582;278;121098;-56
2023/05/05 01:00:47;;;;;;;;;;;;;;;7.98;60.21;101121.04;102605;278;105905;-57
2023/05/05 01:03:23;;;;;;;;;;;;;;;7.95;60.58;101126.01;102516;278;112556;-56
2023/05/05 01:06:08;;;;;;;;;;;;;;;7.92;60.93;101124.52;102544;278;93455;-54
2023/05/05 01:08:52;;;;;;;;;;;;;;;7.88;61.35;101118.36;102564;278;97420;-54
2023/05/05 01:11:31;;;;;;;;;;;;;;;7.86;61.58;101121.27;102592;278;121742;-54
2023/05/05 01:14:15;;;;;;;;;;;;;;;7.85;61.68;101116.89;102567;277;105791;-54
2023/05/05 01:16:58;;;;;;;;;;;;;;;7.84;61.78;101117.14;102561;278;113471;-53
2023/05/05 01:19:51;;;;;;;;;;;;;;;7.82;61.98;101110.89;102543;277;93675;-55
2023/05/05 01:22:37;;;;;;;;;;;;;;;7.79;62.36;101110.78;102594;278;98126;-56
2023/05/05 01:25:36;;;;;;;;;;;;;;;7.78;62.28;101113.44;102553;277;120065;-55
2023/05/05 01:28:24;;;;;;;;;;;;;;;7.72;62.59;101116.00;102514;278;105081;-56
2023/05/05 01:31:21;;;;;;;;;;;;;;;7.70;62.86;101116.88;102580;278;113276;-53
2023/05/05 01:34:01;;;;;;;;;;;;;;;7.68;62.99;101113.13;102590;277;93567;-54
2023/05/05 01:36:37;;;;;;;;;;;;;;;7.67;63.34;101113.42;102617;277;97135;-57
2023/05/05 01:39:14;;;;;;;;;;;;;;;7.66;63.51;101114.05;102548;277;120278;-55
2023/05/05 01:41:52;;;;;;;;;;;;;;;7.64;63.73;101105.48;102592;278;105548;-54
2023/05/05 01:44:33;;;;;;;;;;;;;;;7.62;64.01;101101.41;102551;277;113017;-54
2023/05/05 01:47:14;;;;;;;;;;;;;;;7.61;63.98;101099.14;102542;277;93794;-56
2023/05/05 01:49:53;;;;;;;;;;;;;;;7.61;64.13;101099.48;102516;277;97602;-54
2023/05/05 01:52:30;;;;;;;;;;;;;;;7.60;64.44;101095.34;102559;277;118652;-53
2023/05/05 01:55:11;;;;;;;;;;;;;;;7.60;64.86;101095.55;102607;277;105530;-56
2023/05/05 01:57:49;;;;;;;;;;;;;;;7.57;65.06;101099.70;102542;278;115550;-56
2023/05/05 02:00:23;;;;;;;;;;;;;;;7.56;65.35;101099.10;102527;277;93793;-54
2023/05/05 02:02:59;;;;;;;;;;;;;;;7.53;65.52;101100.29;102537;277;96435;-54
2023/05/05 02:05:36;;;;;;;;;;;;;;;7.54;65.75;101099.15;102551;277;120121;-55
2023/05/05 02:08:15;;;;;;;;;;;;;;;7.54;65.90;101095.77;102537;277;104631;-55
2023/05/05 02:10:56;;;;;;;;;;;;;;;7.54;66.09;101094.45;102554;277;114548;-53
2023/05/05 02:13:33;;;;;;;;;;;;;;;7.54;66.16;101091.06;102408;277;93205;-54
2023/05/05 02:16:07;;;;;;;;;;;;;;;7.55;66.18;101089.59;102555;277;96515;-54
2023/05/05 02:18:43;;;;;;;;;;;;;;;7.59;66.20;101084.98;102525;277;120295;-54
2023/05/05 02:21:16;;;;;;;;;;;;;;;7.61;66.38;101083.52;102560;278;104221;-54
2023/05/05 02:23:53;;;;;;;;;;;;;;;7.63;66.37;101077.30;102519;278;114720;-53
2023/05/05 02:26:29;;;;;;;;;;;;;;;7.64;66.23;101077.57;102616;266;93320;-54
2023/05/05 02:29:10;;;;;;;;;;;;;;;7.66;66.20;101081.83;102539;278;97226;-53
2023/05/05 02:31:47;;;;;;;;;;;;;;;7.72;65.67;101078.89;102530;277;121324;-56
2023/05/05 02:34:24;;;;;;;;;;;;;;;7.75;65.73;101077.34;102482;277;104750;-56
2023/05/05 02:37:06;;;;;;;;;;;;;;;7.74;65.95;101075.85;102535;277;115403;-53
2023/05/05 02:39:43;;;;;;;;;;;;;;;7.74;66.02;101078.71;102550;277;93740;-54
2023/05/05 02:42:19;;;;;;;;;;;;;;;7.77;65.66;101073.17;102532;277;96757;-55
2023/05/05 02:45:00;;;;;;;;;;;;;;;7.80;65.44;101068.77;102525;277;120680;-54
2023/05/05 02:47:41;;;;;;;;;;;;;;;7.81;65.44;101067.03;102527;278;104471;-54
2023/05/05 02:50:18;;;;;;;;;;;;;;;7.83;65.47;101066.31;102491;277;114281;-54
2023/05/05 02:52:57;;;;;;;;;;;;;;;7.83;65.57;101066.48;102532;277;92222;-54
2023/05/05 02:55:39;;;;;;;;;;;;;;;7.85;65.48;101066.83;102555;277;97534;-57
2023/05/05 02:58:24;;;;;;;;;;;;;;;7.86;65.46;101064.34;102540;277;120700;-56
2023/05/05 03:01:09;;;;;;;;;;;;;;;7.88;65.62;101065.98;102577;278;106008;-54
2023/05/05 03:03:52;;;;;;;;;;;;;;;7.89;65.64;101063.90;102514;277;114073;-53
2023/05/05 03:06:26;;;;;;;;;;;;;;;7.91;65.80;101063.73;102546;278;92807;-55
2023/05/05 03:09:05;;;;;;;;;;;;;;;7.92;66.09;101061.77;102622;278;96388;-55
2023/05/05 03:11:40;;;;;;;;;;;;;;;7.93;66.27;101062.90;102601;278;120581;-54
2023/05/05 03:14:17;;;;;;;;;;;;;;;7.95;66.38;101059.63;102651;278;104369;-53
2023/05/05 03:16:55;;;;;;;;;;;;;;;7.97;66.40;101065.24;102638;278;113019;-54
2023/05/05 03:19:31;;;;;;;;;;;;;;;7.99;66.44;101064.87;102635;278;93448;-53
2023/05/05 03:22:07;;;;;;;;;;;;;;;8.02;66.41;101061.05;102632;278;97605;-56
2023/05/05 03:24:43;;;;;;;;;;;;;;;8.07;66.58;101062.77;102084;278;624309;-56
2023/05/05 03:27:20;;;;;;;;;;;;;;;8.10;66.68;101061.68;102585;278;105555;-56
2023/05/05 03:29:57;;;;;;;;;;;;;;;8.14;66.65;101056.41;102624;278;113526;-53
2023/05/05 03:32:36;;;;;;;;;;;;;;;8.18;66.77;101059.21;102598;278;93283;-53
2023/05/05 03:35:22;;;;;;;;;;;;;;;8.21;66.77;101063.04;102615;278;98476;-57
2023/05/05 03:38:00;;;;;;;;;;;;;;;8.23;66.91;101064.77;102625;278;120334;-56
2023/05/05 03:40:37;;;;;;;;;;;;;;;8.27;66.85;101064.95;102655;278;104865;-54
2023/05/05 03:43:10;;;;;;;;;;;;;;;8.30;66.93;101065.92;102594;278;114901;-53
2023/05/05 03:45:51;;;;;;;;;;;;;;;8.37;66.95;101067.95;102574;278;93055;-57
2023/05/05 03:48:28;;;;;;;;;;;;;;;8.40;67.13;101066.64;102619;278;97342;-56
2023/05/05 03:51:05;;;;;;;;;;;;;;;8.46;67.17;101066.56;102612;278;121838;-56
2023/05/05 03:53:39;;;;;;;;;;;;;;;8.54;67.29;101064.11;102618;278;105628;-55
2023/05/05 03:56:15;;;;;;;;;;;;;;;8.63;66.93;101067.44;102630;278;114333;-54
2023/05/05 03:58:51;;;;;;;;;;;;;;;8.75;66.56;101071.52;102624;278;91426;-54
2023/05/05 04:01:28;;;;;;;;;;;;;;;8.84;66.55;101073.25;102662;278;97804;-55
2023/05/05 04:04:04;;;;;;;;;;;;;;;8.92;66.69;101072.98;102608;278;121623;-55
2023/05/05 04:06:41;;;;;;;;;;;;;;;9.00;66.63;101074.67;102620;278;105277;-54
2023/05/05 04:09:15;;;;;;;;;;;;;;;9.08;66.46;101080.42;102598;290;115094;-54
2023/05/05 04:11:53;;;;;;;;;;;;;;;9.15;66.13;101085.10;102626;278;91603;-55
2023/05/05 04:14:32;;;;;;;;;;;;;;;9.26;65.22;101093.40;102651;278;97748;-55
2023/05/05 04:17:14;;;;;;;;;;;;;;;9.40;64.50;101093.86;102634;278;120356;-56
2023/05/05 04:19:46;;;;;;;;;;;;;;;9.55;63.81;101097.08;102646;278;106405;-54
2023/05/05 04:22:26;;;;;;;;;;;;;;;9.76;63.16;101096.19;102608;278;114606;-54
2023/05/05 04:25:05;;;;;;;;;;;;;;;10.02;62.46;101100.46;102610;278;94241;-54
2023/05/05 04:27:38;;;;;;;;;;;;;;;10.28;61.66;101107.54;102630;278;98014;-53
2023/05/05 04:30:15;;;;;;;;;;;;;;;10.52;61.22;101111.02;102601;278;121192;-55
2023/05/05 04:32:51;;;;;;;;;;;;;;;10.76;60.82;101119.85;102606;278;106025;-55
2023/05/05 04:35:28;;;;;;;;;;;;;;;11.00;60.15;101120.79;102598;278;114579;-54
2023/05/05 04:38:03;;;;;;;;;;;;;;;11.16;59.30;101118.69;102584;278;94729;-56
2023/05/05 04:40:43;;;;;;;;;;;;;;;11.20;58.54;101124.77;102631;266;97656;-56
2023/05/05 04:43:19;;;;;;;;;;;;;;;11.28;57.82;101129.09;102560;278;120626;-56
2023/05/05 04:45:59;;;;;;;;;;;;;;;11.22;57.44;101138.48;102615;278;104959;-56
2023/05/05 04:48:36;;;;;;;;;;;;;;;11.22;56.96;101139.73;102554;278;114216;-55
2023/05/05 04:51:10;;;;;;;;;;;;;;;11.47;56.44;101142.09;102568;278;93904;-56
2023/05/05 04:53:47;;;;;;;;;;;;;;;11.64;55.87;101143.35;102570;278;98256;-57
2023/05/05 04:56:27;;;;;;;;;;;;;;;11.89;55.97;101136.93;102584;278;121241;-55
2023/05/05 04:59:06;;;;;;;;;;;;;;;12.44;55.83;101134.27;102562;278;103605;-54
2023/05/05 05:01:45;;;;;;;;;;;;;;;13.23;54.90;101142.27;102489;279;114091;-55
2023/05/05 05:04:26;;;;;;;;;;;;;;;13.69;54.06;101142.05;102548;278;93805;-56
2023/05/05 05:07:07;;;;;;;;;;;;;;;14.08;52.58;101138.47;102582;278;97115;-57
2023/05/05 05:09:42;;;;;;;;;;;;;;;14.37;51.15;101137.11;102537;278;121006;-56
2023/05/05 05:12:19;;;;;;;;;;;;;;;14.18;50.34;101139.03;102596;278;105714;-54
2023/05/05 05:14:56;;;;;;;;;;;;;;;14.10;49.74;101139.30;102583;278;114387;-55
2023/05/05 05:17:31;;;;;;;;;;;;;;;14.21;49.40;101141.94;102556;278;94811;-54
2023/05/05 05:20:07;;;;;;;;;;;;;;;14.64;49.27;101140.47;102582;277;98260;-55
2023/05/05 05:22:43;;;;;;;;;;;;;;;15.05;48.29;101137.36;102554;277;119229;-55
2023/05/05 05:25:19;;;;;;;;;;;;;;;15.03;48.02;101136.67;102606;278;106605;-55
2023/05/05 05:27:59;;;;;;;;;;;;;;;14.88;47.37;101134.82;102492;279;114357;-55
2023/05/05 05:30:36;;;;;;;;;;;;;;;14.78;47.53;101139.06;102571;277;93647;-57
2023/05/05 05:33:13;;;;;;;;;;;;;;;14.68;46.98;101138.95;102577;278;96652;-58
2023/05/05 05:35:47;;;;;;;;;;;;;;;14.68;46.56;101140.67;102586;277;119596;-58
2023/05/05 05:38:24;;;;;;;;;;;;;;;14.62;46.35;101144.13;102522;278;105306;-57
2023/05/05 05:40:59;;;;;;;;;;;;;;;15.01;46.04;101142.40;102527;278;113733;-54
2023/05/05 05:43:40;;;;;;;;;;;;;;;15.40;45.63;101144.26;102553;278;95163;-55
2023/05/05 05:46:15;;;;;;;;;;;;;;;16.14;44.70;101141.64;102577;277;96446;-57
2023/05/05 05:48:51;;;;;;;;;;;;;;;17.15;44.84;101141.14;102533;277;120620;-59
2023/05/05 05:51:27;;;;;;;;;;;;;;;18.39;43.36;101130.77;102592;277;105232;-58
2023/05/05 05:54:04;;;;;;;;;;;;;;;19.68;41.77;101136.09;102624;277;113818;-58
2023/05/05 05:56:43;;;;;;;;;;;;;;;20.85;39.90;101132.09;102537;277;93906;-55
2023/05/05 05:59:22;;;;;;;;;;;;;;;21.90;38.55;101134.06;102555;277;96769;-55
2023/05/05 06:01:57;;;;;;;;;;;;;;;22.13;37.52;101131.60;102496;278;121227;-55
2023/05/05 06:04:33;;;;;;;;;;;;;;;23.20;37.27;101125.70;102558;277;104777;-56
2023/05/05 06:07:06;;;;;;;;;;;;;;;24.31;35.32;101123.81;102560;277;114250;-54
2023/05/05 06:09:38;;;;;;;;;;;;;;;24.44;34.24;101125.96;102540;278;94672;-55
2023/05/05 06:12:16;;;;;;;;;;;;;;;24.07;33.17;101129.02;102579;277;97008;-55
2023/05/05 06:14:51;;;;;;;;;;;;;;;23.04;33.67;101138.12;102544;277;120805;-55
2023/05/05 06:17:29;;;;;;;;;;;;;;;22.34;33.24;101140.96;102533;278;106218;-54
2023/05/05 06:20:08;;;;;;;;;;;;;;;21.97;33.03;101147.09;102561;277;114541;-55
2023/05/05 06:22:42;;;;;;;;;;;;;;;22.10;32.58;101146.24;102555;277;94134;-56
2023/05/05 06:25:17;;;;;;;;;;;;;;;22.24;32.69;101149.38;102537;278;98425;-56
2023/05/05 06:27:52;;;;;;;;;;;;;;;22.64;32.31;101149.86;102564;277;118933;-55
2023/05/05 06:30:25;;;;;;;;;;;;;;;22.97;31.89;101143.69;102602;277;105674;-55
2023/05/05 06:33:01;;;;;;;;;;;;;;;23.36;31.48;101142.33;102517;278;114438;-55
2023/05/05 06:35:36;;;;;;;;;;;;;;;24.54;31.29;101142.18;102521;277;94687;-57
2023/05/05 06:38:12;;;;;;;;;;;;;;;25.84;30.13;101144.92;102536;277;96488;-56
2023/05/05 06:40:54;;;;;;;;;;;;;;;27.27;27.39;101137.66;102501;279;120150;-58
2023/05/05 06:43:28;;;;;;;;;;;;;;;27.96;27.83;101138.84;102493;278;105432;-56
2023/05/05 06:46:04;;;;;;;;;;;;;;;28.79;27.59;101139.98;102532;277;115521;-56
2023/05/05 06:48:37;;;;;;;;;;;;;;;29.63;26.83;101144.17;102560;278;93823;-56
2023/05/05 06:51:19;;;;;;;;;;;;;;;30.24;26.08;101145.14;102540;277;98156;-57
2023/05/05 06:53:51;;;;;;;;;;;;;;;30.47;25.43;101140.38;102510;277;119446;-56
2023/05/05 06:56:33;;;;;;;;;;;;;;;30.42;24.45;101142.68;102528;277;105721;-54
2023/05/05 06:59:06;;;;;;;;;;;;;;;29.45;23.71;101140.36;102542;277;112915;-54
2023/05/05 07:01:41;;;;;;;;;;;;;;;28.81;24.19;101146.77;102577;277;94573;-54
2023/05/05 07:04:17;;;;;;;;;;;;;;;28.90;24.56;101144.35;102556;278;97429;-55
2023/05/05 07:06:58;;;;;;;;;;;;;;;29.26;24.53;101144.95;102577;277;120832;-57
2023/05/05 07:09:34;;;;;;;;;;;;;;;28.90;23.54;101144.95;102589;278;105156;-56
2023/05/05 07:12:07;;;;;;;;;;;;;;;28.25;23.53;101146.14;102614;278;115006;-55
2023/05/05 07:14:45;;;;;;;;;;;;;;;28.41;24.21;101146.58;102615;278;93584;-56
2023/05/05 07:17:24;;;;;;;;;;;;;;;29.02;23.69;101148.41;102625;278;98522;-55
2023/05/05 07:20:02;;;;;;;;;;;;;;;29.72;23.64;101151.14;102599;278;120273;-56
2023/05/05 07:22:37;;;;;;;;;;;;;;;29.27;22.78;101148.42;102593;278;104950;-53
2023/05/05 07:25:10;;;;;;;;;;;;;;;28.60;22.77;101152.05;102620;278;114201;-55
2023/05/05 07:27:47;;;;;;;;;;;;;;;28.27;23.30;101153.52;102638;278;95211;-54
2023/05/05 07:30:20;;;;;;;;;;;;;;;28.24;23.37;101153.65;102619;278;97175;-54
2023/05/05 07:32:55;;;;;;;;;;;;;;;28.33;22.34;101154.13;102626;278;121148;-54
2023/05/05 07:35:32;;;;;;;;;;;;;;;28.28;22.32;101152.11;102680;278;106134;-55
2023/05/05 07:38:07;;;;;;;;;;;;;;;28.21;22.59;101152.05;102602;278;114751;-55
2023/05/05 07:40:44;;;;;;;;;;;;;;;27.98;22.80;101154.22;102618;278;93855;-56
2023/05/05 07:43:23;;;;;;;;;;;;;;;27.68;22.66;101160.52;102622;278;97430;-57
2023/05/05 07:46:00;;;;;;;;;;;;;;;27.27;22.81;101159.02;102572;278;120859;-56
2023/05/05 07:48:34;;;;;;;;;;;;;;;27.23;23.57;101159.94;102611;277;106401;-57
2023/05/05 07:51:12;;;;;;;;;;;;;;;27.87;23.57;101158.27;102619;278;114463;-55
2023/05/05 07:53:48;;;;;;;;;;;;;;;27.81;23.55;101162.25;102615;278;94569;-55
2023/05/05 07:56:24;;;;;;;;;;;;;;;27.31;23.97;101160.08;102636;278;100082;-54
2023/05/05 07:59:02;;;;;;;;;;;;;;;27.41;24.03;101154.89;102647;278;120369;-56
2023/05/05 08:01:35;;;;;;;;;;;;;;;27.66;24.29;101157.16;102629;278;105275;-55
2023/05/05 08:04:10;;;;;;;;;;;;;;;27.66;24.01;101157.83;102620;278;114112;-55
2023/05/05 08:06:46;;;;;;;;;;;;;;;27.56;23.70;101159.13;102648;278;94653;-56
2023/05/05 08:09:22;;;;;;;;;;;;;;;27.64;23.24;101157.72;102622;278;97838;-57
2023/05/05 08:12:00;;;;;;;;;;;;;;;27.34;23.54;101157.47;102584;278;118125;-57
2023/05/05 08:14:41;;;;;;;;;;;;;;;27.24;23.46;101160.69;102631;266;104309;-56
2023/05/05 08:17:14;;;;;;;;;;;;;;;27.37;23.47;101159.19;102612;278;114565;-56
2023/05/05 08:19:52;;;;;;;;;;;;;;;27.34;23.25;101163.90;102627;278;94325;-59
2023/05/05 08:22:27;;;;;;;;;;;;;;;27.53;23.50;101167.86;102604;278;96041;-58
2023/05/05 08:25:00;;;;;;;;;;;;;;;28.04;23.54;101165.42;102639;278;120860;-56
2023/05/05 08:27:45;;;;;;;;;;;;;;;28.17;23.49;101166.36;102600;278;105623;-55
2023/05/05 08:30:21;;;;;;;;;;;;;;;28.01;22.45;101165.77;102594;277;113973;-57
2023/05/05 08:32:58;;;;;;;;;;;;;;;27.61;22.64;101166.12;102629;278;94983;-57
2023/05/05 08:35:33;;;;;;;;;;;;;;;27.17;22.73;101173.87;102577;278;97650;-55
2023/05/05 08:38:11;;;;;;;;;;;;;;;26.10;22.68;101172.86;102585;278;121580;-55
2023/05/05 08:40:45;;;;;;;;;;;;;;;24.93;23.29;101173.91;102546;278;105842;-56
2023/05/05 08:43:19;;;;;;;;;;;;;;;24.41;23.89;101170.25;102518;278;113362;-56
2023/05/05 08:45:53;;;;;;;;;;;;;;;24.12;24.41;101170.16;102564;278;92365;-54
2023/05/05 08:48:28;;;;;;;;;;;;;;;23.70;24.86;101168.66;102517;278;97128;-52
2023/05/05 08:51:05;;;;;;;;;;;;;;;23.41;24.68;101172.45;102584;278;120000;-56
2023/05/05 08:53:59;;;;;;;;;;;;;;;23.01;25.18;101171.59;102576;278;105243;-56
2023/05/05 08:56:40;;;;;;;;;;;;;;;22.99;25.83;101169.23;102554;278;115158;-55
2023/05/05 08:59:16;;;;;;;;;;;;;;;22.75;26.20;101168.52;102559;278;93403;-55
2023/05/05 09:01:48;;;;;;;;;;;;;;;22.91;26.22;101170.61;102602;278;97995;-55
2023/05/05 09:04:24;;;;;;;;;;;;;;;22.60;26.19;101172.55;102557;278;120669;-55
2023/05/05 09:07:04;;;;;;;;;;;;;;;22.33;26.33;101177.23;102568;278;105204;-54
2023/05/05 09:09:41;;;;;;;;;;;;;;;22.15;26.75;101178.77;102538;277;114874;-55
2023/05/05 09:12:14;;;;;;;;;;;;;;;22.14;26.98;101176.94;102522;278;94777;-55
2023/05/05 09:14:47;;;;;;;;;;;;;;;22.19;26.97;101178.56;102593;278;98159;-56
2023/05/05 09:17:26;;;;;;;;;;;;;;;22.01;27.32;101182.35;102592;278;118967;-57
2023/05/05 09:20:06;;;;;;;;;;;;;;;21.68;27.71;101183.41;102571;278;105510;-58
2023/05/05 09:22:42;;;;;;;;;;;;;;;21.70;27.98;101181.79;102510;277;114816;-57
2023/05/05 09:25:19;;;;;;;;;;;;;;;21.82;28.07;101184.80;102513;277;93612;-55
2023/05/05 09:27:57;;;;;;;;;;;;;;;21.54;28.15;101182.73;102552;278;97933;-56
2023/05/05 09:30:31;;;;;;;;;;;;;;;21.87;28.06;101181.67;102501;277;121392;-56
2023/05/05 09:33:06;;;;;;;;;;;;;;;22.37;28.19;101173.84;102547;278;104979;-56
2023/05/05 09:35:54;;;;;;;;;;;;;;;22.47;28.15;101178.69;102501;277;114608;-56
2023/05/05 09:38:27;;;;;;;;;;;;;;;22.53;28.61;101176.31;102536;277;93183;-57
2023/05/05 09:41:04;;;;;;;;;;;;;;;22.73;28.43;101177.30;102564;277;97880;-54
2023/05/05 09:43:52;;;;;;;;;;;;;;;22.54;28.44;101179.42;102521;266;120835;-56
2023/05/05 09:46:30;;;;;;;;;;;;;;;22.12;28.66;101183.32;102526;267;105533;-54
2023/05/05 09:49:21;;;;;;;;;;;;;;;22.12;28.84;101182.52;102451;278;114290;-56
2023/05/05 09:52:01;;;;;;;;;;;;;;;22.22;28.73;101183.30;102503;278;94791;-57
2023/05/05 09:54:36;;;;;;;;;;;;;;;21.81;29.09;101188.24;102548;278;98214;-56
2023/05/05 09:57:24;;;;;;;;;;;;;;;21.43;29.42;101192.27;102519;277;120995;-57
2023/05/05 10:00:01;;;;;;;;;;;;;;;21.21;29.62;101186.50;102506;278;104585;-55
2023/05/05 10:02:35;;;;;;;;;;;;;;;21.01;30.03;101191.06;102569;266;114718;-55
2023/05/05 10:05:10;;;;;;;;;;;;;;;20.62;30.46;101190.67;102552;277;94909;-55
2023/05/05 10:07:44;;;;;;;;;;;;;;;20.62;30.65;101194.86;102486;266;97096;-55
2023/05/05 10:10:19;;;;;;;;;;;;;;;20.34;30.87;101190.51;102564;277;120237;-57
2023/05/05 10:12:57;;;;;;;;;;;;;;;20.18;31.02;101186.75;102574;278;104371;-57
2023/05/05 10:15:35;;;;;;;;;;;;;;;20.30;31.11;101188.34;102530;277;113723;-56
2023/05/05 10:18:09;;;;;;;;;;;;;;;20.25;31.20;101193.09;102551;277;94594;-56
2023/05/05 10:20:45;;;;;;;;;;;;;;;19.96;31.38;101193.80;102574;277;97723;-53
2023/05/05 10:23:20;;;;;;;;;;;;;;;20.14;31.43;101193.48;102605;277;120915;-55
2023/05/05 10:26:02;;;;;;;;;;;;;;;20.39;31.55;101190.64;102586;278;105354;-53
2023/05/05 10:28:45;;;;;;;;;;;;;;;20.59;31.48;101186.65;102513;277;113758;-54
2023/05/05 10:31:21;;;;;;;;;;;;;;;21.06;31.24;101193.05;102561;277;94983;-57
2023/05/05 10:34:01;;;;;;;;;;;;;;;21.22;30.93;101185.38;102558;277;97899;-57
2023/05/05 10:36:38;;;;;;;;;;;;;;;21.16;31.07;101186.65;102514;277;120162;-55
2023/05/05 10:39:15;;;;;;;;;;;;;;;21.20;30.88;101190.32;102549;277;106076;-53
2023/05/05 10:41:55;;;;;;;;;;;;;;;21.07;30.82;101187.59;102574;277;113018;-55
2023/05/05 10:44:33;;;;;;;;;;;;;;;20.79;30.98;101189.98;102516;277;94264;-54
2023/05/05 10:47:11;;;;;;;;;;;;;;;21.00;31.34;101190.36;102551;278;98032;-54
2023/05/05 10:49:51;;;;;;;;;;;;;;;20.85;31.17;101193.07;102555;277;120886;-56
2023/05/05 10:52:33;;;;;;;;;;;;;;;20.31;31.57;101191.52;102523;277;104484;-55
2023/05/05 10:55:11;;;;;;;;;;;;;;;20.02;31.70;101191.75;102523;277;113938;-54
2023/05/05 10:57:52;;;;;;;;;;;;;;;19.97;32.10;101189.63;102517;278;94900;-55
2023/05/05 11:00:55;;;;;;;;;;;;;;;19.93;32.61;101190.70;102553;277;98286;-55
2023/05/05 11:03:31;;;;;;;;;;;;;;;19.69;32.84;101187.05;102555;277;121117;-55
2023/05/05 11:06:14;;;;;;;;;;;;;;;19.54;33.21;101187.27;102543;278;105406;-55
2023/05/05 11:08:50;;;;;;;;;;;;;;;19.26;33.34;101182.31;102623;277;114619;-51
2023/05/05 11:11:44;;;;;;;;;;;;;;;19.34;33.42;101179.66;102503;278;94119;-55
2023/05/05 11:14:27;;;;;;;;;;;;;;;19.54;33.60;101181.45;102616;278;98169;-55
2023/05/05 11:17:28;;;;;;;;;;;;;;;19.66;33.49;101181.55;102619;278;120991;-56
2023/05/05 11:20:07;;;;;;;;;;;;;;;19.60;33.97;101178.17;102648;278;106030;-54
2023/05/05 11:23:02;;;;;;;;;;;;;;;19.43;33.91;101181.73;102627;278;114404;-55
2023/05/05 11:25:50;;;;;;;;;;;;;;;19.57;33.86;101181.16;102190;279;470394;-58
2023/05/05 11:28:27;;;;;;;;;;;;;;;19.25;34.27;101180.77;102540;279;97049;-57
2023/05/05 11:31:19;;;;;;;;;;;;;;;19.06;34.47;101180.55;102563;278;120016;-54
2023/05/05 11:33:56;;;;;;;;;;;;;;;19.10;34.51;101178.90;102603;278;104298;-55
2023/05/05 11:36:42;;;;;;;;;;;;;;;19.24;34.80;101179.85;102575;278;113639;-54
2023/05/05 11:39:28;;;;;;;;;;;;;;;19.38;34.51;101186.29;102602;278;94189;-55
2023/05/05 11:42:23;;;;;;;;;;;;;;;19.19;34.54;101188.63;102595;278;96643;-57
2023/05/05 11:44:58;;;;;;;;;;;;;;;18.87;34.79;101192.05;102630;277;120837;-55
2023/05/05 11:47:35;;;;;;;;;;;;;;;18.71;35.38;101195.55;102580;278;106783;-54
2023/05/05 11:50:23;;;;;;;;;;;;;;;18.58;35.39;101186.52;102598;278;114073;-54
2023/05/05 11:52:58;;;;;;;;;;;;;;;18.54;35.59;101198.00;102616;278;94152;-56
2023/05/05 11:55:33;;;;;;;;;;;;;;;18.50;35.66;101191.50;102603;278;97962;-56
2023/05/05 11:58:19;;;;;;;;;;;;;;;18.53;35.75;101188.64;102550;278;120543;-57
2023/05/05 12:00:52;;;;;;;;;;;;;;;18.36;35.85;101187.71;102587;278;106348;-57
2023/05/05 12:03:33;;;;;;;;;;;;;;;18.18;36.07;101190.13;102570;278;113903;-57
2023/05/05 12:06:07;;;;;;;;;;;;;;;18.04;36.27;101187.88;102562;278;94524;-55
2023/05/05 12:08:42;;;;;;;;;;;;;;;17.88;36.50;101183.75;102578;278;96288;-56
2023/05/05 12:11:18;;;;;;;;;;;;;;;17.92;36.83;101182.13;102554;278;120995;-56
2023/05/05 12:13:51;;;;;;;;;;;;;;;17.76;36.98;101178.26;102548;278;104164;-55
2023/05/05 12:16:27;;;;;;;;;;;;;;;17.78;37.07;101174.42;102642;278;115385;-55
2023/05/05 12:19:13;;;;;;;;;;;;;;;17.77;37.24;101185.48;102541;278;93767;-55
2023/05/05 12:21:46;;;;;;;;;;;;;;;17.63;37.23;101185.88;102605;278;98019;-54
2023/05/05 12:24:21;;;;;;;;;;;;;;;17.57;37.24;101185.40;102586;278;119557;-55
2023/05/05 12:26:56;;;;;;;;;;;;;;;17.63;37.10;101184.15;102553;278;105843;-55
2023/05/05 12:29:30;;;;;;;;;;;;;;;17.63;37.01;101185.72;102517;277;114298;-54
2023/05/05 12:32:05;;;;;;;;;;;;;;;17.61;37.23;101180.72;102519;278;95568;-57
2023/05/05 12:34:40;;;;;;;;;;;;;;;17.55;37.36;101177.84;102509;266;96207;-57
2023/05/05 12:37:17;;;;;;;;;;;;;;;17.45;37.52;101179.02;102546;278;119890;-56
2023/05/05 12:39:50;;;;;;;;;;;;;;;17.27;37.91;101183.40;102561;278;105459;-56
2023/05/05 12:42:27;;;;;;;;;;;;;;;17.08;37.97;101185.40;102561;278;112771;-57
2023/05/05 12:45:01;;;;;;;;;;;;;;;16.93;38.11;101188.96;102583;270;93830;-54
2023/05/05 12:47:42;;;;;;;;;;;;;;;16.84;38.37;101181.91;102557;278;98193;-55
2023/05/05 12:50:31;;;;;;;;;;;;;;;16.89;38.57;101189.67;102551;278;120082;-55
2023/05/05 12:53:06;;;;;;;;;;;;;;;16.95;38.51;101190.52;102476;278;105808;-56
2023/05/05 12:55:40;;;;;;;;;;;;;;;17.11;38.60;101191.04;102498;278;115249;-56
2023/05/05 12:58:19;;;;;;;;;;;;;;;17.15;38.40;101184.44;102557;278;94648;-56
2023/05/05 13:01:17;;;;;;;;;;;;;;;17.18;38.80;101186.48;102556;278;95964;-54
2023/05/05 13:04:01;;;;;;;;;;;;;;;17.01;38.65;101183.27;102518;278;120690;-55
2023/05/05 13:06:36;;;;;;;;;;;;;;;17.11;38.76;101183.00;102545;278;105224;-55
2023/05/05 13:09:10;;;;;;;;;;;;;;;17.22;38.99;101190.22;102542;278;114371;-56
2023/05/05 13:11:46;;;;;;;;;;;;;;;17.06;38.72;101193.52;102562;277;94244;-57
2023/05/05 13:14:22;;;;;;;;;;;;;;;17.09;38.58;101188.73;102539;278;97646;-57
2023/05/05 13:16:58;;;;;;;;;;;;;;;17.17;38.75;101194.05;102583;278;120543;-55
2023/05/05 13:19:34;;;;;;;;;;;;;;;17.15;38.85;101190.73;102577;277;104884;-55
2023/05/05 13:22:10;;;;;;;;;;;;;;;17.26;38.89;101188.78;102521;278;114668;-55
2023/05/05 13:24:45;;;;;;;;;;;;;;;17.36;38.98;101190.27;102568;278;93564;-55
2023/05/05 13:27:27;;;;;;;;;;;;;;;17.16;38.89;101186.75;102567;278;96615;-55